METAR Data
IDs: Format: Raw Decoded Include TAF

Data at: 1335 UTC 07 Jul 2020

KJWN 071315Z AUTO 19004KT 10SM CLR 26/22 A3000 RMK A01
KJWN 071255Z AUTO 21004KT 10SM CLR 26/22 A2999 RMK A01
KJWN 071235Z AUTO 00000KT 10SM CLR 25/23 A2999 RMK A01
KJWN 071215Z AUTO 00000KT 10SM CLR 25/23 A2998 RMK A01
KJWN 071155Z AUTO 00000KT 9SM CLR 24/23 A2998 RMK A01
KJWN 071135Z AUTO 00000KT 8SM FEW037 23/22 A2998 RMK A01
KJWN 071115Z AUTO 00000KT 7SM BKN038 23/22 A2997 RMK A01
KJWN 071055Z AUTO 00000KT 5SM BR SCT038 22/22 A2997 RMK A01
KJWN 071035Z AUTO 00000KT 8SM CLR 23/22 A2997 RMK A01
KJWN 071015Z AUTO 00000KT 10SM FEW041 23/22 A2996 RMK A01
KJWN 070955Z AUTO 00000KT 10SM BKN038 BKN045 23/22 A2996 RMK A01
KJWN 070935Z AUTO 00000KT 10SM BKN039 OVC046 23/23 A2996 RMK A01
KJWN 070915Z AUTO 00000KT 10SM BKN037 23/22 A2996 RMK A01
KJWN 070855Z AUTO 00000KT 9SM SCT037 23/22 A2995 RMK A01
KJWN 070835Z AUTO 00000KT 10SM CLR 23/22 A2994 RMK A01
KJWN 070815Z AUTO 00000KT 10SM FEW037 24/23 A2994 RMK A01
KJWN 070755Z AUTO 00000KT 10SM CLR 24/23 A2995 RMK A01
KJWN 070735Z AUTO 00000KT 9SM SCT046 23/22 A2994 RMK A01
KJWN 070715Z AUTO 00000KT 10SM SCT045 23/22 A2995 RMK A01
KJWN 070655Z AUTO 00000KT 10SM FEW080 FEW100 24/23 A2995 RMK A01
KJWN 070635Z AUTO 00000KT 10SM OVC095 24/23 A2995 RMK A01
KJWN 070615Z AUTO 00000KT 10SM OVC090 24/23 A2996 RMK A01
KJWN 070555Z AUTO 00000KT 10SM OVC090 24/23 A2996 RMK A01
KJWN 070535Z AUTO 28003KT 10SM SCT090 24/23 A2997 RMK A01
KJWN 070515Z AUTO 28003KT 10SM CLR 24/23 A2997 RMK A01
KJWN 070455Z AUTO 00000KT 10SM CLR 24/23 A2997 RMK A01
KJWN 070435Z AUTO 00000KT 10SM CLR 24/23 A2998 RMK A01
KJWN 070415Z AUTO 00000KT 10SM FEW075 24/23 A2997 RMK A01
KJWN 070355Z AUTO 00000KT 10SM FEW070 25/23 A2998 RMK A01
KJWN 070335Z AUTO 22004KT 10SM SCT070 25/23 A2998 RMK A01
KJWN 070315Z AUTO 00000KT 10SM CLR 25/23 A2997 RMK A01
KJWN 070255Z AUTO 00000KT 10SM FEW050 SCT060 25/23 A2996 RMK A01
KJWN 070235Z AUTO 00000KT 10SM FEW044 BKN050 BKN060 26/24 A2996 RMK A01
KJWN 070215Z AUTO 00000KT 10SM CLR 26/24 A2996 RMK A01
KJWN 070155Z AUTO 00000KT 10SM CLR 27/24 A2995 RMK A01
KJWN 070135Z AUTO 00000KT 10SM CLR 27/24 A2996 RMK A01
KJWN 070115Z AUTO 00000KT 10SM CLR 27/24 A2995 RMK A01
KJWN 070055Z AUTO 00000KT 10SM CLR 28/24 A2994 RMK A01
KJWN 070035Z AUTO 00000KT 10SM CLR 28/24 A2993 RMK A01
KJWN 070015Z AUTO 30003KT 10SM CLR 29/24 A2993 RMK A01
KJWN 062355Z AUTO 28004KT 10SM CLR 29/24 A2993 RMK A01
KJWN 062335Z AUTO 28004KT 10SM CLR 29/24 A2993 RMK A01
KJWN 062315Z AUTO 00000KT 10SM CLR 30/23 A2993 RMK A01
KJWN 062255Z AUTO 00000KT 10SM CLR 32/19 A2993 RMK A01
KJWN 062235Z AUTO 11003KT 10SM CLR 32/19 A2992 RMK A01
KJWN 062215Z AUTO 12003KT 10SM CLR 32/18 A2993 RMK A01
KJWN 062155Z AUTO 06005KT 10SM CLR 33/19 A2993 RMK A01
KJWN 062135Z AUTO 06003KT 10SM FEW055 32/20 A2993 RMK A01
KJWN 062115Z AUTO VRB04KT 10SM SCT050 BKN060 33/20 A2993 RMK A01
KJWN 062055Z AUTO 02006KT 10SM FEW055 34/21 A2993 RMK A01
KJWN 062035Z AUTO 00000KT 10SM FEW075 33/21 A2994 RMK A01
KJWN 062015Z AUTO 04004KT 10SM FEW055 SCT070 33/20 A2995 RMK A01
KJWN 061955Z AUTO 00000KT 10SM SCT050 SCT065 32/20 A2996 RMK A01
KJWN 061935Z AUTO 00000KT 10SM FEW049 33/21 A2996 RMK A01
KJWN 061915Z AUTO 15004KT 10SM FEW045 32/21 A2997 RMK A01
KJWN 061855Z AUTO 13005KT 10SM SCT045 32/22 A2997 RMK A01
KJWN 061835Z AUTO 03004KT 10SM FEW037 31/23 A2997 RMK A01
KJWN 061815Z AUTO VRB03KT 10SM CLR 31/23 A2998 RMK A01
KJWN 061755Z AUTO 00000KT 10SM CLR 32/23 A2998 RMK A01
KJWN 061735Z AUTO 00000KT 10SM CLR 30/22 A2999 RMK A01
KJWN 061715Z AUTO 05003KT 10SM CLR 29/23 A3000 RMK A01
KJWN 061655Z AUTO 07005KT 10SM CLR 29/23 A3000 RMK A01
KJWN 061635Z AUTO 11006KT 10SM CLR 28/23 A3001 RMK A01
KJWN 061615Z AUTO 06005KT 10SM CLR 28/23 A3001 RMK A01
KJWN 061555Z AUTO 08005KT 10SM CLR 28/22 A3002 RMK A01
KJWN 061535Z AUTO VRB05KT 10SM CLR 28/23 A3002 RMK A01
KJWN 061515Z AUTO 00000KT 10SM CLR 28/23 A3002 RMK A01
KJWN 061455Z AUTO 07005KT 10SM CLR 28/22 A3002 RMK A01
KJWN 061435Z AUTO 05007KT 10SM CLR 27/22 A3001 RMK A01
KJWN 061415Z AUTO 00000KT 10SM FEW070 FEW120 27/22 A3001 RMK A01
KJWN 061355Z AUTO 00000KT 10SM FEW065 FEW120 26/21 A3001 RMK A01
KJWN 061335Z AUTO 00000KT 10SM BKN065 25/21 A3002 RMK A01
KJWN 061315Z AUTO 00000KT 10SM SCT065 BKN110 24/21 A3002 RMK A01
KJWN 061255Z AUTO 36004KT 10SM BKN065 BKN080 BKN110 24/21 A3001 RMK A01
KJWN 061235Z AUTO 00000KT 10SM BKN060 BKN080 23/21 A3001 RMK A01
KJWN 061215Z AUTO 00000KT 10SM SCT065 SCT075 SCT090 23/21 A3001 RMK A01
KJWN 061155Z AUTO 30007KT 10SM BKN065 BKN090 22/21 A3000 RMK A01
KJWN 061135Z AUTO 30006KT 10SM BKN065 BKN075 22/21 A2999 RMK A01
KJWN 061115Z AUTO 34003KT 10SM SCT070 22/21 A2997 RMK A01
KJWN 061055Z AUTO 00000KT 10SM SCT070 22/21 A2997 RMK A01
KJWN 061035Z AUTO 00000KT 10SM FEW120 22/21 A2996 RMK A01
KJWN 061015Z AUTO 00000KT 10SM FEW100 BKN120 22/21 A2996 RMK A01
KJWN 060955Z AUTO 00000KT 10SM FEW100 BKN120 22/21 A2996 RMK A01
KJWN 060935Z AUTO 00000KT 10SM SCT120 22/21 A2995 RMK A01
KJWN 060915Z AUTO 00000KT 10SM FEW120 22/21 A2995 RMK A01
KJWN 060855Z AUTO 32003KT 10SM CLR 22/21 A2994 RMK A01
KJWN 060835Z AUTO 00000KT 10SM CLR 22/21 A2993 RMK A01
KJWN 060815Z AUTO 03003KT 10SM CLR 22/21 A2993 RMK A01
KJWN 060755Z AUTO 02004KT 10SM CLR 22/21 A2993 RMK A01
KJWN 060735Z AUTO 03004KT 10SM CLR 22/21 A2993 RMK A01
KJWN 060715Z AUTO 03004KT 10SM CLR 22/21 A2992 RMK A01
KJWN 060655Z AUTO 03003KT 10SM CLR 22/21 A2993 RMK A01
KJWN 060635Z AUTO 35003KT 10SM CLR 22/21 A2992 RMK A01
KJWN 060615Z AUTO 00000KT 10SM CLR 22/21 A2993 RMK A01
KJWN 060555Z AUTO 00000KT 10SM CLR 22/21 A2993 RMK A01
KJWN 060535Z AUTO 00000KT 10SM CLR 22/21 A2994 RMK A01
KJWN 060515Z AUTO 00000KT 10SM CLR 22/21 A2994 RMK A01
KJWN 060455Z AUTO 00000KT 10SM CLR 22/21 A2995 RMK A01
KJWN 060435Z AUTO 00000KT 10SM CLR 23/20 A2994 RMK A01
KJWN 060415Z AUTO 11003KT 10SM CLR 23/20 A2994 RMK A01
KJWN 060355Z AUTO VRB03KT 10SM CLR 23/20 A2994 RMK A01
KJWN 060335Z AUTO 06005KT 10SM CLR 23/20 A2995 RMK A01
KJWN 060315Z AUTO 06004KT 10SM CLR 23/21 A2995 RMK A01
KJWN 060255Z AUTO 00000KT 10SM CLR 23/20 A2996 RMK A01
KJWN 060235Z AUTO 04003KT 10SM CLR 24/21 A2996 RMK A01
KJWN 060215Z AUTO 02003KT 10SM CLR 23/21 A2996 RMK A01
KJWN 060155Z AUTO 02004KT 10SM CLR 23/21 A2996 RMK A01